createdAt,value
2023-02-09T00:01:21.186Z,104.50
2023-02-09T00:03:48.841Z,109.27
2023-02-09T00:06:17.447Z,107.50
2023-02-09T00:08:44.879Z,126.73
2023-02-09T00:11:14.617Z,124.10
2023-02-09T00:13:43.943Z,114.17
2023-02-09T00:16:11.365Z,110.23
2023-02-09T00:18:38.673Z,126.40
2023-02-09T00:21:07.421Z,117.07
2023-02-09T00:23:37.266Z,102.70
2023-02-09T00:26:07.237Z,105.07
2023-02-09T00:28:34.888Z,108.77
2023-02-09T00:31:06.345Z,107.10
2023-02-09T00:33:33.906Z,105.30
2023-02-09T00:36:01.447Z,105.60
2023-02-09T00:38:28.639Z,96.57
2023-02-09T00:40:55.800Z,105.30
2023-02-09T00:43:23.063Z,105.97
2023-02-09T00:45:50.474Z,104.13
2023-02-09T00:48:17.898Z,104.67
2023-02-09T00:50:45.367Z,101.57
2023-02-09T00:53:12.776Z,108.13
2023-02-09T00:55:39.961Z,101.13
2023-02-09T00:58:07.301Z,105.73
2023-02-09T01:00:34.529Z,95.57
2023-02-09T01:03:01.760Z,102.47
2023-02-09T01:05:29.377Z,103.70
2023-02-09T01:07:56.930Z,109.13
2023-02-09T01:10:24.777Z,99.23
2023-02-09T01:12:52.202Z,104.97
2023-02-09T01:15:19.474Z,114.83
2023-02-09T01:17:46.785Z,106.67
2023-02-09T01:20:14.508Z,117.03
2023-02-09T01:22:41.944Z,107.20
2023-02-09T01:25:09.525Z,109.07
2023-02-09T01:27:36.982Z,113.97
2023-02-09T01:30:04.773Z,109.30
2023-02-09T01:32:32.139Z,100.70
2023-02-09T01:34:59.492Z,103.43
2023-02-09T01:37:26.728Z,96.97
2023-02-09T01:39:53.932Z,94.20
2023-02-09T01:42:22.200Z,84.63
2023-02-09T01:45:18.570Z,83.77
2023-02-09T01:47:48.160Z,83.83
2023-02-09T01:50:15.787Z,90.57
2023-02-09T01:52:43.515Z,89.50
2023-02-09T01:55:13.102Z,84.77
2023-02-09T01:57:42.509Z,85.90
2023-02-09T02:00:12.050Z,82.17
2023-02-09T02:02:40.485Z,80.83
2023-02-09T02:05:09.000Z,78.23
2023-02-09T02:07:39.209Z,86.23
2023-02-09T02:10:06.607Z,87.30
2023-02-09T02:12:34.388Z,85.27
2023-02-09T02:15:01.846Z,100.37
2023-02-09T02:17:47.748Z,105.17
2023-02-09T02:20:21.071Z,114.77
2023-02-09T02:22:51.353Z,95.07
2023-02-09T02:25:18.551Z,96.03
2023-02-09T02:27:48.911Z,86.40
2023-02-09T02:30:29.879Z,88.50
2023-02-09T02:33:19.206Z,86.10
2023-02-09T02:35:52.281Z,78.20
2023-02-09T02:38:28.035Z,95.50
2023-02-09T02:40:55.670Z,77.37
2023-02-09T02:43:25.926Z,86.70
2023-02-09T02:46:09.904Z,82.37
2023-02-09T02:48:40.940Z,87.83
2023-02-09T02:51:26.988Z,86.40
2023-02-09T02:53:56.310Z,83.87
2023-02-09T02:56:43.885Z,88.20
2023-02-09T02:59:13.633Z,79.80
2023-02-09T03:01:43.102Z,90.83
2023-02-09T03:04:11.163Z,89.03
2023-02-09T03:06:38.749Z,78.60
2023-02-09T03:09:05.949Z,86.83
2023-02-09T03:11:37.026Z,77.40
2023-02-09T03:14:21.560Z,86.93
2023-02-09T03:16:49.001Z,83.03
2023-02-09T03:19:35.283Z,77.00
2023-02-09T03:22:12.520Z,79.27
2023-02-09T03:24:49.470Z,81.17
2023-02-09T03:27:19.445Z,83.13
2023-02-09T03:29:48.020Z,79.97
2023-02-09T03:32:16.483Z,77.17
2023-02-09T03:34:44.308Z,80.67
2023-02-09T03:37:11.588Z,84.77
2023-02-09T03:39:38.906Z,83.23
2023-02-09T03:42:06.276Z,79.40
2023-02-09T03:44:33.530Z,84.67
2023-02-09T03:47:07.802Z,87.60
2023-02-09T03:49:39.449Z,84.90
2023-02-09T03:52:08.226Z,85.33
2023-02-09T03:54:35.674Z,94.07
2023-02-09T03:57:03.195Z,82.33
2023-02-09T03:59:30.576Z,91.30
2023-02-09T04:01:59.293Z,77.70
2023-02-09T04:04:26.757Z,84.17
2023-02-09T04:06:54.154Z,86.23
2023-02-09T04:09:21.418Z,91.80
2023-02-09T04:11:48.726Z,86.33
2023-02-09T04:14:16.361Z,93.00
2023-02-09T04:16:43.671Z,94.67
2023-02-09T04:19:11.464Z,89.93
2023-02-09T04:21:39.359Z,98.27
2023-02-09T04:24:07.486Z,88.77
2023-02-09T04:26:35.184Z,91.13
2023-02-09T04:29:02.527Z,90.53
2023-02-09T04:31:29.924Z,91.63
2023-02-09T04:33:57.170Z,101.10
2023-02-09T04:36:24.695Z,96.83
2023-02-09T04:38:51.929Z,91.97
2023-02-09T04:41:19.190Z,91.17
2023-02-09T04:43:46.946Z,88.30
2023-02-09T04:46:14.980Z,88.63
2023-02-09T04:48:42.445Z,102.70
2023-02-09T04:51:09.816Z,92.90
2023-02-09T04:53:37.269Z,88.63
2023-02-09T04:56:04.745Z,81.07
2023-02-09T04:58:50.625Z,96.17
2023-02-09T05:01:22.415Z,86.07
2023-02-09T05:03:50.222Z,92.73
2023-02-09T05:06:17.830Z,92.27
2023-02-09T05:08:45.302Z,85.60
2023-02-09T05:11:12.709Z,83.97
2023-02-09T05:13:46.322Z,93.83
2023-02-09T05:16:15.662Z,83.00
2023-02-09T05:18:43.288Z,86.53
2023-02-09T05:21:10.591Z,95.63
2023-02-09T05:23:37.923Z,84.30
2023-02-09T05:26:05.354Z,97.50
2023-02-09T05:28:32.577Z,98.47
2023-02-09T05:30:59.813Z,99.83
2023-02-09T05:33:27.261Z,97.27
2023-02-09T05:35:57.835Z,94.67
2023-02-09T05:38:25.157Z,100.93
2023-02-09T05:40:52.387Z,93.70
2023-02-09T05:43:19.829Z,95.10
2023-02-09T05:45:47.113Z,94.97
2023-02-09T05:48:14.405Z,84.27
2023-02-09T05:50:41.845Z,89.23
2023-02-09T05:53:09.740Z,101.33
2023-02-09T05:55:37.054Z,98.50
2023-02-09T05:58:04.520Z,98.23
2023-02-09T06:00:31.852Z,104.07
2023-02-09T06:02:59.109Z,108.93
2023-02-09T06:05:26.951Z,101.73
2023-02-09T06:07:54.248Z,105.40
2023-02-09T06:10:21.681Z,95.77
2023-02-09T06:12:49.170Z,113.20
2023-02-09T06:15:16.741Z,109.33
2023-02-09T06:17:43.976Z,119.93
2023-02-09T06:20:11.505Z,117.17
2023-02-09T06:22:38.796Z,108.10
2023-02-09T06:25:06.364Z,109.37
2023-02-09T06:27:33.612Z,107.90
2023-02-09T06:30:00.979Z,113.70
2023-02-09T06:32:28.183Z,123.27
2023-02-09T06:34:55.379Z,100.77
2023-02-09T06:37:22.870Z,104.97
2023-02-09T06:39:50.053Z,105.53
2023-02-09T06:42:17.343Z,108.27
2023-02-09T06:44:44.802Z,108.43
2023-02-09T06:47:12.171Z,110.77
2023-02-09T06:49:39.381Z,114.67
2023-02-09T06:52:06.665Z,113.30
2023-02-09T06:54:34.154Z,102.10
2023-02-09T06:57:01.488Z,111.13
2023-02-09T06:59:28.773Z,113.60
2023-02-09T07:01:56.126Z,115.47
2023-02-09T07:04:23.888Z,114.83
2023-02-09T07:06:51.072Z,117.60
2023-02-09T07:09:18.292Z,109.13
2023-02-09T07:11:45.595Z,113.87
2023-02-09T07:14:12.801Z,111.70
2023-02-09T07:16:40.025Z,112.63
2023-02-09T07:19:07.275Z,104.70
2023-02-09T07:21:34.542Z,97.17
2023-02-09T07:24:02.288Z,108.10
2023-02-09T07:26:29.745Z,99.63
2023-02-09T07:28:56.994Z,107.13
2023-02-09T07:31:24.448Z,104.40
2023-02-09T07:33:52.084Z,96.60
2023-02-09T07:36:19.300Z,101.53
2023-02-09T07:38:46.883Z,104.87
2023-02-09T07:41:15.981Z,111.10
2023-02-09T07:43:43.245Z,102.37
2023-02-09T07:46:10.910Z,96.23
2023-02-09T07:48:38.419Z,94.03
2023-02-09T07:51:06.172Z,98.23
2023-02-09T07:53:34.152Z,93.53
2023-02-09T07:56:01.568Z,95.93
2023-02-09T07:58:28.923Z,93.33
2023-02-09T08:00:56.923Z,90.17
2023-02-09T08:03:25.034Z,104.97
2023-02-09T08:05:57.926Z,92.23
2023-02-09T08:08:25.133Z,93.10
2023-02-09T08:10:52.743Z,92.17
2023-02-09T08:13:20.522Z,108.27
2023-02-09T08:15:49.838Z,94.87
2023-02-09T08:18:19.177Z,107.30
2023-02-09T08:20:47.198Z,91.03
2023-02-09T08:23:18.665Z,104.00
2023-02-09T08:25:48.180Z,88.03
2023-02-09T08:28:16.112Z,96.83
2023-02-09T08:30:43.444Z,91.30
2023-02-09T08:33:10.647Z,94.37
2023-02-09T08:35:37.848Z,82.23
2023-02-09T08:38:05.329Z,88.73
2023-02-09T08:40:32.882Z,86.57
2023-02-09T08:43:00.128Z,94.63
2023-02-09T08:45:27.470Z,75.70
2023-02-09T08:47:54.779Z,90.43
2023-02-09T08:50:22.333Z,81.97
2023-02-09T08:52:49.934Z,68.70
2023-02-09T08:55:17.510Z,72.07
2023-02-09T08:57:44.914Z,75.97
2023-02-09T09:00:12.710Z,71.60
2023-02-09T09:02:39.954Z,64.17
2023-02-09T09:05:07.504Z,64.00
2023-02-09T09:07:34.689Z,58.70
2023-02-09T09:10:02.070Z,57.00
2023-02-09T09:12:30.260Z,63.20
2023-02-09T09:14:57.608Z,58.13
2023-02-09T09:17:24.819Z,49.47
2023-02-09T09:19:56.469Z,58.47
2023-02-09T09:22:24.011Z,59.60
2023-02-09T09:24:55.098Z,58.03
2023-02-09T09:27:22.407Z,56.83
2023-02-09T09:29:49.729Z,53.00
2023-02-09T09:32:17.108Z,53.83
2023-02-09T09:34:44.442Z,58.03
2023-02-09T09:37:11.850Z,52.57
2023-02-09T09:39:39.118Z,48.93
2023-02-09T09:42:06.419Z,53.20
2023-02-09T09:44:45.160Z,53.17
2023-02-09T09:47:17.781Z,53.43
2023-02-09T09:49:45.402Z,55.50
2023-02-09T09:52:29.529Z,54.43
2023-02-09T09:54:57.891Z,54.53
2023-02-09T09:57:26.560Z,52.00
2023-02-09T09:59:55.473Z,58.80
2023-02-09T10:02:25.944Z,54.27
2023-02-09T10:04:53.441Z,52.67
2023-02-09T10:07:23.830Z,43.70
2023-02-09T10:10:00.312Z,51.80
2023-02-09T10:12:27.494Z,55.03
2023-02-09T10:14:54.785Z,47.93
2023-02-09T10:17:22.007Z,50.87
2023-02-09T10:20:02.561Z,51.43
2023-02-09T10:22:29.806Z,52.60
2023-02-09T10:24:59.487Z,56.10
2023-02-09T10:27:31.077Z,52.53
2023-02-09T10:30:16.930Z,53.07
2023-02-09T10:32:44.487Z,56.43
2023-02-09T10:35:26.603Z,45.27
2023-02-09T10:38:01.227Z,52.10
2023-02-09T10:40:30.627Z,48.10
2023-02-09T10:42:59.565Z,46.70
2023-02-09T10:45:43.256Z,48.53
2023-02-09T10:48:14.002Z,50.07
2023-02-09T10:51:00.123Z,47.33
2023-02-09T10:53:30.200Z,38.10
2023-02-09T10:56:17.500Z,46.00
2023-02-09T10:58:53.122Z,41.37
2023-02-09T11:01:23.044Z,45.07
2023-02-09T11:03:58.173Z,43.53
2023-02-09T11:06:25.437Z,47.30
2023-02-09T11:08:59.171Z,41.20
2023-02-09T11:11:33.815Z,46.53
2023-02-09T11:14:01.479Z,41.77
2023-02-09T11:16:46.980Z,33.53
2023-02-09T11:19:33.882Z,47.57
2023-02-09T11:22:01.109Z,46.37
2023-02-09T11:24:47.219Z,46.77
2023-02-09T11:27:29.528Z,43.70
2023-02-09T11:30:19.515Z,42.60
2023-02-09T11:32:55.438Z,42.67
2023-02-09T11:35:41.752Z,71.43
2023-02-09T11:38:13.619Z,57.60
2023-02-09T11:40:43.576Z,47.27
2023-02-09T11:43:20.235Z,41.10
2023-02-09T11:45:54.388Z,44.40
2023-02-09T11:48:27.698Z,46.90
2023-02-09T11:51:02.825Z,42.60
2023-02-09T11:53:48.699Z,40.73
2023-02-09T11:56:18.008Z,36.53
2023-02-09T11:58:58.695Z,38.73
2023-02-09T12:01:38.585Z,37.47
2023-02-09T12:04:05.946Z,34.33
2023-02-09T12:06:38.075Z,31.90
2023-02-09T12:09:05.391Z,31.60
2023-02-09T12:11:36.996Z,28.73
2023-02-09T12:14:28.689Z,29.30
2023-02-09T12:17:01.690Z,34.43
2023-02-09T12:19:29.345Z,34.87
2023-02-09T12:21:56.590Z,33.83
2023-02-09T12:24:39.859Z,37.73
2023-02-09T12:27:23.138Z,33.97
2023-02-09T12:29:50.312Z,36.67
2023-02-09T12:32:25.435Z,41.90
2023-02-09T12:34:55.342Z,37.07
2023-02-09T12:37:29.993Z,32.33
2023-02-09T12:40:12.385Z,37.57
2023-02-09T12:42:54.992Z,33.53
2023-02-09T12:45:38.940Z,32.87
2023-02-09T12:48:08.958Z,35.13
2023-02-09T12:50:53.322Z,41.63
2023-02-09T12:53:23.509Z,32.07
2023-02-09T12:56:01.267Z,35.53
2023-02-09T12:58:38.960Z,30.97
2023-02-09T13:01:06.922Z,30.73
2023-02-09T13:03:39.966Z,31.67
2023-02-09T13:06:16.451Z,35.23
2023-02-09T13:08:48.304Z,36.67
2023-02-09T13:11:19.160Z,34.03
2023-02-09T13:13:49.601Z,37.40
2023-02-09T13:16:25.839Z,30.33
2023-02-09T13:18:53.104Z,26.10
2023-02-09T13:21:27.227Z,27.90
2023-02-09T13:24:29.983Z,31.13
2023-02-09T13:26:58.160Z,24.90
2023-02-09T13:29:26.904Z,34.87
2023-02-09T13:32:18.124Z,28.20
2023-02-09T13:34:49.650Z,28.07
2023-02-09T13:37:16.798Z,29.97
2023-02-09T13:39:44.433Z,24.93
2023-02-09T13:42:22.496Z,26.33
2023-02-09T13:44:57.254Z,27.80
2023-02-09T13:47:25.271Z,36.33
2023-02-09T13:49:56.386Z,30.23
2023-02-09T13:52:26.671Z,25.87
2023-02-09T13:54:54.791Z,29.83
2023-02-09T13:57:38.113Z,29.47
2023-02-09T14:00:14.766Z,30.77
2023-02-09T14:02:44.186Z,28.23
2023-02-09T14:05:11.475Z,31.57
2023-02-09T14:07:38.965Z,33.03
2023-02-09T14:10:17.083Z,30.90
2023-02-09T14:12:56.081Z,36.17
2023-02-09T14:16:02.649Z,32.00
2023-02-09T14:18:35.158Z,32.73
2023-02-09T14:21:05.835Z,32.30
2023-02-09T14:23:35.103Z,24.37
2023-02-09T14:26:19.696Z,28.30
2023-02-09T14:28:52.034Z,26.93
2023-02-09T14:31:20.649Z,29.20
2023-02-09T14:33:49.416Z,32.33
2023-02-09T14:36:24.067Z,23.33
2023-02-09T14:38:54.688Z,22.77
2023-02-09T14:41:32.532Z,21.57
2023-02-09T14:44:20.512Z,25.33
2023-02-09T14:46:58.272Z,32.80
2023-02-09T14:49:25.878Z,25.80
2023-02-09T14:52:04.078Z,27.93
2023-02-09T14:54:33.164Z,28.70
2023-02-09T14:57:01.207Z,29.83
2023-02-09T14:59:28.659Z,28.40
2023-02-09T15:01:56.334Z,32.17
2023-02-09T15:04:24.251Z,32.70
2023-02-09T15:06:57.586Z,34.93
2023-02-09T15:09:32.391Z,32.60
2023-02-09T15:12:06.150Z,33.97
2023-02-09T15:14:46.756Z,42.27
2023-02-09T15:17:25.550Z,39.73
2023-02-09T15:19:52.941Z,49.40
2023-02-09T15:22:20.701Z,48.20
2023-02-09T15:24:49.242Z,48.77
2023-02-09T15:27:29.840Z,58.87
2023-02-09T15:29:59.740Z,52.50
2023-02-09T15:32:28.205Z,54.20
2023-02-09T15:34:55.560Z,48.17
2023-02-09T15:37:25.129Z,50.50
2023-02-09T15:39:54.518Z,58.10
2023-02-09T15:42:40.373Z,68.23
2023-02-09T15:45:46.340Z,57.63
2023-02-09T15:48:14.673Z,57.57
2023-02-09T15:50:43.534Z,64.60
2023-02-09T15:53:15.561Z,62.17
2023-02-09T15:55:43.847Z,61.87
2023-02-09T15:58:35.469Z,71.37
2023-02-09T16:01:02.839Z,71.30
2023-02-09T16:03:31.827Z,65.90
2023-02-09T16:06:08.251Z,69.40
2023-02-09T16:08:37.440Z,66.37
2023-02-09T16:11:09.524Z,69.07
2023-02-09T16:13:37.506Z,80.30
2023-02-09T16:16:16.639Z,78.53
2023-02-09T16:18:44.927Z,92.97
2023-02-09T16:21:32.573Z,99.40
2023-02-09T16:24:01.758Z,94.23
2023-02-09T16:26:30.252Z,96.20
2023-02-09T16:28:58.084Z,112.50
2023-02-09T16:31:25.789Z,124.73
2023-02-09T16:33:53.248Z,154.00
2023-02-09T16:36:21.771Z,192.63
2023-02-09T16:38:49.206Z,186.83
2023-02-09T16:41:37.187Z,169.07
2023-02-09T16:44:29.279Z,100.47
2023-02-09T16:46:58.447Z,80.67
2023-02-09T16:49:25.708Z,66.10
2023-02-09T16:51:53.476Z,72.17
2023-02-09T16:54:24.513Z,65.60
2023-02-09T16:56:54.591Z,54.23
2023-02-09T16:59:22.134Z,47.67
2023-02-09T17:01:49.862Z,44.00
2023-02-09T17:04:17.132Z,44.27
2023-02-09T17:06:45.243Z,43.37
2023-02-09T17:09:15.979Z,61.77
2023-02-09T17:11:43.693Z,55.77
2023-02-09T17:14:12.417Z,46.77
2023-02-09T17:16:43.376Z,42.20
2023-02-09T17:19:15.391Z,44.13
2023-02-09T17:21:43.084Z,41.77
2023-02-09T17:24:13.420Z,37.40
2023-02-09T17:26:41.061Z,36.90
2023-02-09T17:29:08.815Z,35.87
2023-02-09T17:31:51.831Z,30.63
2023-02-09T17:34:20.667Z,33.63
2023-02-09T17:36:47.986Z,32.97
2023-02-09T17:39:17.063Z,34.50
2023-02-09T17:41:45.451Z,53.63
2023-02-09T17:44:39.145Z,42.57
2023-02-09T17:47:14.064Z,36.43
2023-02-09T17:49:41.246Z,34.00
2023-02-09T17:52:12.976Z,33.13
2023-02-09T17:54:40.152Z,34.07
2023-02-09T17:57:07.392Z,31.97
2023-02-09T17:59:34.705Z,36.53
2023-02-09T18:02:02.141Z,31.37
2023-02-09T18:04:31.191Z,30.03
2023-02-09T18:06:58.494Z,42.10
2023-02-09T18:09:26.196Z,31.53
2023-02-09T18:11:53.665Z,32.00
2023-02-09T18:14:22.304Z,31.53
2023-02-09T18:16:49.863Z,37.33
2023-02-09T18:19:17.357Z,39.30
2023-02-09T18:22:03.023Z,35.00
2023-02-09T18:24:31.779Z,39.40
2023-02-09T18:26:59.391Z,35.27
2023-02-09T18:29:29.541Z,41.87
2023-02-09T18:31:58.456Z,38.67
2023-02-09T18:34:26.514Z,40.20
2023-02-09T18:36:53.797Z,46.00
2023-02-09T18:39:21.102Z,39.80
2023-02-09T18:41:54.335Z,40.80
2023-02-09T18:44:24.479Z,37.47
2023-02-09T18:46:51.762Z,35.70
2023-02-09T18:49:18.932Z,43.00
2023-02-09T18:51:46.100Z,40.63
2023-02-09T18:54:13.596Z,39.70
2023-02-09T18:56:41.197Z,35.60
2023-02-09T18:59:08.884Z,41.10
2023-02-09T19:01:36.880Z,34.67
2023-02-09T19:04:04.650Z,43.33
2023-02-09T19:06:33.539Z,41.00
2023-02-09T19:09:00.790Z,43.90
2023-02-09T19:11:27.990Z,49.67
2023-02-09T19:14:13.690Z,51.03
2023-02-09T19:16:41.274Z,47.17
2023-02-09T19:19:09.478Z,49.80
2023-02-09T19:21:36.862Z,46.67
2023-02-09T19:24:04.556Z,44.93
2023-02-09T19:26:31.858Z,44.43
2023-02-09T19:28:59.154Z,48.43
2023-02-09T19:31:26.403Z,43.70
2023-02-09T19:33:57.570Z,51.67
2023-02-09T19:36:30.537Z,49.97
2023-02-09T19:38:57.801Z,55.60
2023-02-09T19:41:25.753Z,49.30
2023-02-09T19:43:59.327Z,41.33
2023-02-09T19:46:27.015Z,38.30
2023-02-09T19:48:54.550Z,40.80
2023-02-09T19:51:22.188Z,38.63
2023-02-09T19:53:49.552Z,41.00
2023-02-09T19:56:19.335Z,38.30
2023-02-09T19:58:46.629Z,32.77
2023-02-09T20:01:14.075Z,45.23
2023-02-09T20:03:41.388Z,35.93
2023-02-09T20:06:09.501Z,36.43
2023-02-09T20:08:37.366Z,39.27
2023-02-09T20:11:08.377Z,33.93
2023-02-09T20:13:35.956Z,39.30
2023-02-09T20:16:07.445Z,32.47
2023-02-09T20:18:34.764Z,36.00
2023-02-09T20:21:02.505Z,32.73
2023-02-09T20:23:29.698Z,32.90
2023-02-09T20:25:56.894Z,37.50
2023-02-09T20:28:24.444Z,33.97
2023-02-09T20:30:51.747Z,46.93
2023-02-09T20:33:19.214Z,35.83
2023-02-09T20:35:46.714Z,28.30
2023-02-09T20:38:14.170Z,29.67
2023-02-09T20:40:42.865Z,36.93
2023-02-09T20:43:29.930Z,34.83
2023-02-09T20:46:15.995Z,33.10
2023-02-09T20:48:43.303Z,35.47
2023-02-09T20:51:10.495Z,34.87
2023-02-09T20:53:37.766Z,32.37
2023-02-09T20:56:05.196Z,36.40
2023-02-09T20:58:32.662Z,34.33
2023-02-09T21:00:59.986Z,37.93
2023-02-09T21:03:27.360Z,33.23
2023-02-09T21:05:54.895Z,30.13
2023-02-09T21:08:22.917Z,37.97
2023-02-09T21:10:57.773Z,33.97
2023-02-09T21:13:25.598Z,33.43
2023-02-09T21:15:52.915Z,30.67
2023-02-09T21:18:21.835Z,29.67
2023-02-09T21:20:49.538Z,41.90
2023-02-09T21:23:17.299Z,39.70
2023-02-09T21:25:45.056Z,33.90
2023-02-09T21:28:13.142Z,33.17
2023-02-09T21:30:44.169Z,34.83
2023-02-09T21:33:11.481Z,42.87
2023-02-09T21:35:41.751Z,36.33
2023-02-09T21:38:09.031Z,50.67
2023-02-09T21:40:36.275Z,46.03
2023-02-09T21:43:03.650Z,35.77
2023-02-09T21:45:31.002Z,38.77
2023-02-09T21:47:59.819Z,41.07
2023-02-09T21:50:27.268Z,41.93
2023-02-09T21:52:55.194Z,33.87
2023-02-09T21:55:22.542Z,41.37
2023-02-09T21:57:50.226Z,40.13
2023-02-09T22:00:17.516Z,37.83
2023-02-09T22:02:45.548Z,33.73
2023-02-09T22:05:13.017Z,39.23
2023-02-09T22:07:40.835Z,38.50
2023-02-09T22:10:08.366Z,33.60
2023-02-09T22:12:36.443Z,34.17
2023-02-09T22:15:03.747Z,38.47
2023-02-09T22:17:30.979Z,32.63
2023-02-09T22:19:58.232Z,36.50
2023-02-09T22:22:25.437Z,41.47
2023-02-09T22:24:52.643Z,37.40
2023-02-09T22:27:20.365Z,42.93
2023-02-09T22:29:47.854Z,40.47
2023-02-09T22:32:15.327Z,36.33
2023-02-09T22:34:42.591Z,35.33
2023-02-09T22:37:10.096Z,34.80
2023-02-09T22:39:37.605Z,35.50
2023-02-09T22:42:08.570Z,36.70
2023-02-09T22:44:36.034Z,34.40
2023-02-09T22:47:03.898Z,30.90
2023-02-09T22:49:31.514Z,33.10
2023-02-09T22:51:58.939Z,39.13
2023-02-09T22:54:29.538Z,30.93
2023-02-09T22:56:56.771Z,33.27
2023-02-09T22:59:24.119Z,35.23
2023-02-09T23:01:51.553Z,36.47
2023-02-09T23:04:18.784Z,32.50
2023-02-09T23:06:46.187Z,37.80
2023-02-09T23:09:14.207Z,33.63
2023-02-09T23:11:41.784Z,33.80
2023-02-09T23:14:10.821Z,31.00
2023-02-09T23:16:39.453Z,35.43
2023-02-09T23:19:07.926Z,31.20
2023-02-09T23:21:39.445Z,27.67
2023-02-09T23:24:06.892Z,31.37
2023-02-09T23:26:34.657Z,30.87
2023-02-09T23:29:03.170Z,30.20
2023-02-09T23:31:31.109Z,32.43
2023-02-09T23:33:58.605Z,29.80
2023-02-09T23:36:27.044Z,30.57
2023-02-09T23:38:55.311Z,26.40
2023-02-09T23:41:23.212Z,34.57
2023-02-09T23:43:50.763Z,26.43
2023-02-09T23:46:22.606Z,32.30
2023-02-09T23:48:50.436Z,32.30
2023-02-09T23:51:19.999Z,31.83
2023-02-09T23:53:48.356Z,32.90
2023-02-09T23:56:16.919Z,29.33
2023-02-09T23:58:45.480Z,31.10
